sensor_id;sensor_type;location;lat;lon;timestamp;P1;durP1;ratioP1;P2;durP2;ratioP2
48993;SDS011;34804;49.214;12.276;2023-02-23T00:01:19;9.55;;;5.40;;
48993;SDS011;34804;49.214;12.276;2023-02-23T00:03:48;9.48;;;5.05;;
48993;SDS011;34804;49.214;12.276;2023-02-23T00:06:16;10.32;;;6.03;;
48993;SDS011;34804;49.214;12.276;2023-02-23T00:08:45;10.70;;;5.43;;
48993;SDS011;34804;49.214;12.276;2023-02-23T00:11:14;11.70;;;5.82;;
48993;SDS011;34804;49.214;12.276;2023-02-23T00:13:43;10.23;;;5.82;;
48993;SDS011;34804;49.214;12.276;2023-02-23T00:16:12;10.07;;;5.95;;
48993;SDS011;34804;49.214;12.276;2023-02-23T00:18:46;11.82;;;6.63;;
48993;SDS011;34804;49.214;12.276;2023-02-23T00:21:17;11.75;;;6.63;;
48993;SDS011;34804;49.214;12.276;2023-02-23T00:23:47;14.00;;;7.20;;
48993;SDS011;34804;49.214;12.276;2023-02-23T00:26:16;11.88;;;6.82;;
48993;SDS011;34804;49.214;12.276;2023-02-23T00:28:49;10.90;;;6.93;;
48993;SDS011;34804;49.214;12.276;2023-02-23T00:31:16;11.60;;;6.68;;
48993;SDS011;34804;49.214;12.276;2023-02-23T00:33:44;11.70;;;6.57;;
48993;SDS011;34804;49.214;12.276;2023-02-23T00:36:12;15.27;;;6.95;;
48993;SDS011;34804;49.214;12.276;2023-02-23T00:38:40;12.15;;;5.55;;
48993;SDS011;34804;49.214;12.276;2023-02-23T00:41:13;9.75;;;5.50;;
48993;SDS011;34804;49.214;12.276;2023-02-23T00:43:46;10.35;;;5.32;;
48993;SDS011;34804;49.214;12.276;2023-02-23T00:46:16;12.48;;;6.45;;
48993;SDS011;34804;49.214;12.276;2023-02-23T00:51:15;14.73;;;5.93;;
48993;SDS011;34804;49.214;12.276;2023-02-23T00:53:43;16.27;;;6.53;;
48993;SDS011;34804;49.214;12.276;2023-02-23T00:56:11;12.30;;;5.07;;
48993;SDS011;34804;49.214;12.276;2023-02-23T00:58:39;10.13;;;4.90;;
48993;SDS011;34804;49.214;12.276;2023-02-23T01:01:10;9.50;;;4.93;;
48993;SDS011;34804;49.214;12.276;2023-02-23T01:03:39;11.20;;;4.68;;
48993;SDS011;34804;49.214;12.276;2023-02-23T01:06:07;11.32;;;5.18;;
48993;SDS011;34804;49.214;12.276;2023-02-23T01:08:40;10.02;;;4.95;;
48993;SDS011;34804;49.214;12.276;2023-02-23T01:11:14;10.87;;;5.33;;
48993;SDS011;34804;49.214;12.276;2023-02-23T01:13:46;10.65;;;5.82;;
48993;SDS011;34804;49.214;12.276;2023-02-23T01:16:15;14.00;;;7.07;;
48993;SDS011;34804;49.214;12.276;2023-02-23T01:18:44;12.10;;;6.88;;
48993;SDS011;34804;49.214;12.276;2023-02-23T01:21:19;10.93;;;5.97;;
48993;SDS011;34804;49.214;12.276;2023-02-23T01:23:48;11.15;;;5.90;;
48993;SDS011;34804;49.214;12.276;2023-02-23T01:26:20;9.70;;;6.00;;
48993;SDS011;34804;49.214;12.276;2023-02-23T01:28:49;9.97;;;5.67;;
48993;SDS011;34804;49.214;12.276;2023-02-23T01:31:17;10.10;;;5.30;;
48993;SDS011;34804;49.214;12.276;2023-02-23T01:33:45;7.78;;;4.28;;
48993;SDS011;34804;49.214;12.276;2023-02-23T01:36:12;7.22;;;4.07;;
48993;SDS011;34804;49.214;12.276;2023-02-23T01:38:39;9.43;;;4.93;;
48993;SDS011;34804;49.214;12.276;2023-02-23T01:41:06;9.35;;;5.00;;
48993;SDS011;34804;49.214;12.276;2023-02-23T01:43:34;11.25;;;5.03;;
48993;SDS011;34804;49.214;12.276;2023-02-23T01:46:02;10.95;;;4.13;;
48993;SDS011;34804;49.214;12.276;2023-02-23T01:48:34;9.93;;;4.55;;
48993;SDS011;34804;49.214;12.276;2023-02-23T01:51:09;10.73;;;5.00;;
48993;SDS011;34804;49.214;12.276;2023-02-23T01:53:42;9.88;;;4.85;;
48993;SDS011;34804;49.214;12.276;2023-02-23T01:56:17;9.15;;;5.10;;
48993;SDS011;34804;49.214;12.276;2023-02-23T01:58:49;10.90;;;5.82;;
48993;SDS011;34804;49.214;12.276;2023-02-23T02:01:18;10.02;;;6.03;;
48993;SDS011;34804;49.214;12.276;2023-02-23T02:03:55;10.50;;;6.68;;
48993;SDS011;34804;49.214;12.276;2023-02-23T02:06:24;10.45;;;6.13;;
48993;SDS011;34804;49.214;12.276;2023-02-23T02:08:58;9.73;;;6.13;;
48993;SDS011;34804;49.214;12.276;2023-02-23T02:11:32;10.25;;;6.43;;
48993;SDS011;34804;49.214;12.276;2023-02-23T02:16:41;11.88;;;5.43;;
48993;SDS011;34804;49.214;12.276;2023-02-23T02:25:43;12.35;;;5.15;;
48993;SDS011;34804;49.214;12.276;2023-02-23T02:43:09;11.02;;;5.40;;
48993;SDS011;34804;49.214;12.276;2023-02-23T02:48:29;11.27;;;5.47;;
48993;SDS011;34804;49.214;12.276;2023-02-23T02:53:57;14.00;;;5.97;;
48993;SDS011;34804;49.214;12.276;2023-02-23T02:56:39;10.10;;;6.20;;
48993;SDS011;34804;49.214;12.276;2023-02-23T02:59:09;10.05;;;5.95;;
48993;SDS011;34804;49.214;12.276;2023-02-23T03:01:57;12.95;;;6.15;;
48993;SDS011;34804;49.214;12.276;2023-02-23T03:04:43;12.95;;;6.47;;
48993;SDS011;34804;49.214;12.276;2023-02-23T03:14:01;11.63;;;6.25;;
48993;SDS011;34804;49.214;12.276;2023-02-23T03:17:03;13.20;;;6.78;;
48993;SDS011;34804;49.214;12.276;2023-02-23T03:19:54;12.02;;;6.45;;
48993;SDS011;34804;49.214;12.276;2023-02-23T03:22:46;13.27;;;6.18;;
48993;SDS011;34804;49.214;12.276;2023-02-23T03:29:25;14.38;;;6.45;;
48993;SDS011;34804;49.214;12.276;2023-02-23T03:32:02;13.38;;;7.00;;
48993;SDS011;34804;49.214;12.276;2023-02-23T03:38:05;15.68;;;5.88;;
48993;SDS011;34804;49.214;12.276;2023-02-23T03:40:58;10.68;;;6.20;;
48993;SDS011;34804;49.214;12.276;2023-02-23T03:43:49;11.38;;;5.50;;
48993;SDS011;34804;49.214;12.276;2023-02-23T03:49:25;11.50;;;5.78;;
48993;SDS011;34804;49.214;12.276;2023-02-23T03:52:18;12.52;;;6.20;;
48993;SDS011;34804;49.214;12.276;2023-02-23T03:55:09;14.90;;;7.17;;
48993;SDS011;34804;49.214;12.276;2023-02-23T03:58:00;16.00;;;7.28;;
48993;SDS011;34804;49.214;12.276;2023-02-23T04:00:50;16.23;;;6.90;;
48993;SDS011;34804;49.214;12.276;2023-02-23T04:03:40;14.40;;;6.90;;
48993;SDS011;34804;49.214;12.276;2023-02-23T04:06:29;12.10;;;6.70;;
48993;SDS011;34804;49.214;12.276;2023-02-23T04:09:19;14.90;;;6.90;;
48993;SDS011;34804;49.214;12.276;2023-02-23T04:12:06;17.48;;;7.63;;
48993;SDS011;34804;49.214;12.276;2023-02-23T04:15:00;13.32;;;7.47;;
48993;SDS011;34804;49.214;12.276;2023-02-23T04:17:30;13.45;;;7.50;;
48993;SDS011;34804;49.214;12.276;2023-02-23T04:19:57;14.85;;;7.93;;
48993;SDS011;34804;49.214;12.276;2023-02-23T04:22:24;13.93;;;7.85;;
48993;SDS011;34804;49.214;12.276;2023-02-23T04:24:51;12.13;;;7.13;;
48993;SDS011;34804;49.214;12.276;2023-02-23T04:27:18;14.52;;;8.02;;
48993;SDS011;34804;49.214;12.276;2023-02-23T04:29:45;13.35;;;7.85;;
48993;SDS011;34804;49.214;12.276;2023-02-23T04:32:13;14.00;;;6.65;;
48993;SDS011;34804;49.214;12.276;2023-02-23T04:34:42;14.98;;;6.22;;
48993;SDS011;34804;49.214;12.276;2023-02-23T04:37:09;12.77;;;6.22;;
48993;SDS011;34804;49.214;12.276;2023-02-23T04:39:36;9.68;;;5.53;;
48993;SDS011;34804;49.214;12.276;2023-02-23T04:42:03;12.85;;;5.70;;
48993;SDS011;34804;49.214;12.276;2023-02-23T04:44:30;9.45;;;5.47;;
48993;SDS011;34804;49.214;12.276;2023-02-23T04:46:57;11.70;;;6.40;;
48993;SDS011;34804;49.214;12.276;2023-02-23T04:49:24;9.07;;;5.70;;
48993;SDS011;34804;49.214;12.276;2023-02-23T04:51:50;11.40;;;6.55;;
48993;SDS011;34804;49.214;12.276;2023-02-23T04:54:17;13.25;;;7.47;;
48993;SDS011;34804;49.214;12.276;2023-02-23T04:56:44;12.38;;;7.00;;
48993;SDS011;34804;49.214;12.276;2023-02-23T04:59:11;13.40;;;6.88;;
48993;SDS011;34804;49.214;12.276;2023-02-23T05:01:38;16.92;;;7.78;;
48993;SDS011;34804;49.214;12.276;2023-02-23T05:04:05;14.70;;;8.77;;
48993;SDS011;34804;49.214;12.276;2023-02-23T05:06:32;14.60;;;8.48;;
48993;SDS011;34804;49.214;12.276;2023-02-23T05:08:59;15.73;;;8.82;;
48993;SDS011;34804;49.214;12.276;2023-02-23T05:11:26;13.80;;;7.90;;
48993;SDS011;34804;49.214;12.276;2023-02-23T05:13:53;14.82;;;6.93;;
48993;SDS011;34804;49.214;12.276;2023-02-23T05:16:20;11.13;;;5.90;;
48993;SDS011;34804;49.214;12.276;2023-02-23T05:18:47;10.27;;;6.13;;
48993;SDS011;34804;49.214;12.276;2023-02-23T05:21:14;12.02;;;7.28;;
48993;SDS011;34804;49.214;12.276;2023-02-23T05:23:41;15.93;;;8.38;;
48993;SDS011;34804;49.214;12.276;2023-02-23T05:26:10;13.55;;;8.23;;
48993;SDS011;34804;49.214;12.276;2023-02-23T05:28:38;17.08;;;8.95;;
48993;SDS011;34804;49.214;12.276;2023-02-23T05:31:06;18.13;;;8.43;;
48993;SDS011;34804;49.214;12.276;2023-02-23T05:33:34;14.98;;;8.55;;
48993;SDS011;34804;49.214;12.276;2023-02-23T05:36:12;16.15;;;8.25;;
48993;SDS011;34804;49.214;12.276;2023-02-23T05:38:42;14.00;;;7.40;;
48993;SDS011;34804;49.214;12.276;2023-02-23T05:41:10;14.80;;;8.00;;
48993;SDS011;34804;49.214;12.276;2023-02-23T05:43:38;15.63;;;8.63;;
48993;SDS011;34804;49.214;12.276;2023-02-23T05:46:06;15.52;;;9.32;;
48993;SDS011;34804;49.214;12.276;2023-02-23T05:48:37;15.48;;;9.73;;
48993;SDS011;34804;49.214;12.276;2023-02-23T05:51:05;15.38;;;8.10;;
48993;SDS011;34804;49.214;12.276;2023-02-23T05:53:36;13.98;;;8.32;;
48993;SDS011;34804;49.214;12.276;2023-02-23T05:56:03;15.43;;;8.70;;
48993;SDS011;34804;49.214;12.276;2023-02-23T05:58:31;15.40;;;9.05;;
48993;SDS011;34804;49.214;12.276;2023-02-23T06:00:58;14.10;;;8.35;;
48993;SDS011;34804;49.214;12.276;2023-02-23T06:03:25;14.30;;;7.75;;
48993;SDS011;34804;49.214;12.276;2023-02-23T06:05:53;16.70;;;8.57;;
48993;SDS011;34804;49.214;12.276;2023-02-23T06:08:22;13.00;;;7.53;;
48993;SDS011;34804;49.214;12.276;2023-02-23T06:10:51;13.38;;;7.15;;
48993;SDS011;34804;49.214;12.276;2023-02-23T06:13:18;13.15;;;7.05;;
48993;SDS011;34804;49.214;12.276;2023-02-23T06:15:46;11.07;;;6.45;;
48993;SDS011;34804;49.214;12.276;2023-02-23T06:18:14;11.52;;;6.57;;
48993;SDS011;34804;49.214;12.276;2023-02-23T06:20:42;10.98;;;5.60;;
48993;SDS011;34804;49.214;12.276;2023-02-23T06:23:11;13.90;;;6.40;;
48993;SDS011;34804;49.214;12.276;2023-02-23T06:25:37;10.45;;;6.57;;
48993;SDS011;34804;49.214;12.276;2023-02-23T06:28:06;8.90;;;5.65;;
48993;SDS011;34804;49.214;12.276;2023-02-23T06:30:34;10.98;;;5.70;;
48993;SDS011;34804;49.214;12.276;2023-02-23T06:33:01;12.82;;;6.10;;
48993;SDS011;34804;49.214;12.276;2023-02-23T06:35:28;15.02;;;5.57;;
48993;SDS011;34804;49.214;12.276;2023-02-23T06:37:55;11.85;;;6.72;;
48993;SDS011;34804;49.214;12.276;2023-02-23T06:40:22;13.70;;;6.75;;
48993;SDS011;34804;49.214;12.276;2023-02-23T06:42:49;10.52;;;6.78;;
48993;SDS011;34804;49.214;12.276;2023-02-23T06:45:16;15.25;;;7.20;;
48993;SDS011;34804;49.214;12.276;2023-02-23T06:47:44;13.27;;;7.53;;
48993;SDS011;34804;49.214;12.276;2023-02-23T06:50:12;14.75;;;8.00;;
48993;SDS011;34804;49.214;12.276;2023-02-23T06:52:40;12.45;;;7.47;;
48993;SDS011;34804;49.214;12.276;2023-02-23T06:55:07;13.30;;;7.63;;
48993;SDS011;34804;49.214;12.276;2023-02-23T06:57:35;14.48;;;7.80;;
48993;SDS011;34804;49.214;12.276;2023-02-23T07:00:02;14.88;;;7.80;;
48993;SDS011;34804;49.214;12.276;2023-02-23T07:02:30;13.57;;;8.15;;
48993;SDS011;34804;49.214;12.276;2023-02-23T07:04:57;13.27;;;8.40;;
48993;SDS011;34804;49.214;12.276;2023-02-23T07:07:24;15.55;;;8.45;;
48993;SDS011;34804;49.214;12.276;2023-02-23T07:09:50;14.65;;;8.02;;
48993;SDS011;34804;49.214;12.276;2023-02-23T07:12:17;16.10;;;7.10;;
48993;SDS011;34804;49.214;12.276;2023-02-23T07:14:44;17.83;;;8.20;;
48993;SDS011;34804;49.214;12.276;2023-02-23T07:17:11;13.90;;;7.80;;
48993;SDS011;34804;49.214;12.276;2023-02-23T07:19:38;14.32;;;8.35;;
48993;SDS011;34804;49.214;12.276;2023-02-23T07:22:05;15.73;;;8.48;;
48993;SDS011;34804;49.214;12.276;2023-02-23T07:24:31;17.10;;;9.10;;
48993;SDS011;34804;49.214;12.276;2023-02-23T07:26:58;15.05;;;8.07;;
48993;SDS011;34804;49.214;12.276;2023-02-23T07:29:25;16.52;;;9.02;;
48993;SDS011;34804;49.214;12.276;2023-02-23T07:31:53;14.93;;;9.00;;
48993;SDS011;34804;49.214;12.276;2023-02-23T07:34:20;15.73;;;9.75;;
48993;SDS011;34804;49.214;12.276;2023-02-23T07:36:47;19.17;;;10.20;;
48993;SDS011;34804;49.214;12.276;2023-02-23T07:39:14;16.85;;;9.95;;
48993;SDS011;34804;49.214;12.276;2023-02-23T07:41:41;17.20;;;10.27;;
48993;SDS011;34804;49.214;12.276;2023-02-23T07:44:08;18.13;;;10.93;;
48993;SDS011;34804;49.214;12.276;2023-02-23T07:46:34;18.75;;;10.15;;
48993;SDS011;34804;49.214;12.276;2023-02-23T07:49:01;16.50;;;11.15;;
48993;SDS011;34804;49.214;12.276;2023-02-23T07:51:28;16.08;;;10.48;;
48993;SDS011;34804;49.214;12.276;2023-02-23T07:53:55;18.73;;;10.65;;
48993;SDS011;34804;49.214;12.276;2023-02-23T07:56:22;21.95;;;11.73;;
48993;SDS011;34804;49.214;12.276;2023-02-23T07:58:48;21.63;;;11.68;;
48993;SDS011;34804;49.214;12.276;2023-02-23T08:01:15;19.55;;;12.32;;
48993;SDS011;34804;49.214;12.276;2023-02-23T08:03:44;18.45;;;11.20;;
48993;SDS011;34804;49.214;12.276;2023-02-23T08:06:15;18.55;;;11.38;;
48993;SDS011;34804;49.214;12.276;2023-02-23T08:08:42;17.88;;;11.07;;
48993;SDS011;34804;49.214;12.276;2023-02-23T08:11:09;20.35;;;11.75;;
48993;SDS011;34804;49.214;12.276;2023-02-23T08:13:37;43.83;;;17.05;;
48993;SDS011;34804;49.214;12.276;2023-02-23T08:16:04;37.30;;;14.27;;
48993;SDS011;34804;49.214;12.276;2023-02-23T08:18:31;40.38;;;15.23;;
48993;SDS011;34804;49.214;12.276;2023-02-23T08:21:01;26.77;;;12.27;;
48993;SDS011;34804;49.214;12.276;2023-02-23T08:23:30;17.60;;;10.93;;
48993;SDS011;34804;49.214;12.276;2023-02-23T08:25:58;16.70;;;10.82;;
48993;SDS011;34804;49.214;12.276;2023-02-23T08:28:26;18.02;;;11.02;;
48993;SDS011;34804;49.214;12.276;2023-02-23T08:30:53;21.05;;;12.45;;
48993;SDS011;34804;49.214;12.276;2023-02-23T08:33:21;21.75;;;13.30;;
48993;SDS011;34804;49.214;12.276;2023-02-23T08:35:47;23.13;;;12.95;;
48993;SDS011;34804;49.214;12.276;2023-02-23T08:38:14;23.38;;;13.63;;
48993;SDS011;34804;49.214;12.276;2023-02-23T08:40:43;26.10;;;14.50;;
48993;SDS011;34804;49.214;12.276;2023-02-23T08:43:10;23.67;;;14.65;;
48993;SDS011;34804;49.214;12.276;2023-02-23T08:45:37;25.88;;;15.57;;
48993;SDS011;34804;49.214;12.276;2023-02-23T08:48:05;24.95;;;15.65;;
48993;SDS011;34804;49.214;12.276;2023-02-23T08:50:32;21.80;;;13.80;;
48993;SDS011;34804;49.214;12.276;2023-02-23T08:53:00;24.63;;;14.05;;
48993;SDS011;34804;49.214;12.276;2023-02-23T08:55:27;21.80;;;13.13;;
48993;SDS011;34804;49.214;12.276;2023-02-23T08:57:53;22.13;;;12.20;;
48993;SDS011;34804;49.214;12.276;2023-02-23T09:00:20;18.33;;;11.43;;
48993;SDS011;34804;49.214;12.276;2023-02-23T09:02:47;15.90;;;11.07;;
48993;SDS011;34804;49.214;12.276;2023-02-23T09:05:14;20.30;;;11.63;;
48993;SDS011;34804;49.214;12.276;2023-02-23T09:07:42;19.00;;;11.23;;
48993;SDS011;34804;49.214;12.276;2023-02-23T09:10:14;19.70;;;11.68;;
48993;SDS011;34804;49.214;12.276;2023-02-23T09:12:45;24.50;;;12.85;;
48993;SDS011;34804;49.214;12.276;2023-02-23T09:15:11;18.17;;;11.80;;
48993;SDS011;34804;49.214;12.276;2023-02-23T09:17:38;16.25;;;11.77;;
48993;SDS011;34804;49.214;12.276;2023-02-23T09:20:08;18.17;;;11.82;;
48993;SDS011;34804;49.214;12.276;2023-02-23T09:22:39;21.40;;;13.02;;
48993;SDS011;34804;49.214;12.276;2023-02-23T09:25:07;22.08;;;13.35;;
48993;SDS011;34804;49.214;12.276;2023-02-23T09:27:35;18.92;;;12.85;;
48993;SDS011;34804;49.214;12.276;2023-02-23T09:30:02;22.80;;;12.35;;
48993;SDS011;34804;49.214;12.276;2023-02-23T09:32:30;20.92;;;12.82;;
48993;SDS011;34804;49.214;12.276;2023-02-23T09:34:57;21.25;;;13.23;;
48993;SDS011;34804;49.214;12.276;2023-02-23T09:37:24;19.83;;;12.23;;
48993;SDS011;34804;49.214;12.276;2023-02-23T09:39:50;21.40;;;13.57;;
48993;SDS011;34804;49.214;12.276;2023-02-23T09:42:33;20.83;;;13.35;;
48993;SDS011;34804;49.214;12.276;2023-02-23T09:45:29;21.88;;;13.90;;
48993;SDS011;34804;49.214;12.276;2023-02-23T09:48:17;20.65;;;13.00;;
48993;SDS011;34804;49.214;12.276;2023-02-23T09:50:46;20.08;;;12.15;;
48993;SDS011;34804;49.214;12.276;2023-02-23T09:53:23;21.38;;;13.60;;
48993;SDS011;34804;49.214;12.276;2023-02-23T09:56:03;22.02;;;13.75;;
48993;SDS011;34804;49.214;12.276;2023-02-23T09:58:51;21.05;;;12.60;;
48993;SDS011;34804;49.214;12.276;2023-02-23T10:07:04;22.25;;;14.18;;
48993;SDS011;34804;49.214;12.276;2023-02-23T10:09:57;21.15;;;14.20;;
48993;SDS011;34804;49.214;12.276;2023-02-23T10:15:03;25.27;;;15.70;;
48993;SDS011;34804;49.214;12.276;2023-02-23T10:17:50;29.38;;;18.58;;
48993;SDS011;34804;49.214;12.276;2023-02-23T10:20:57;35.78;;;20.70;;
48993;SDS011;34804;49.214;12.276;2023-02-23T10:23:35;39.20;;;23.20;;
48993;SDS011;34804;49.214;12.276;2023-02-23T10:26:09;35.33;;;20.80;;
48993;SDS011;34804;49.214;12.276;2023-02-23T10:28:41;38.55;;;22.73;;
48993;SDS011;34804;49.214;12.276;2023-02-23T10:31:18;31.75;;;20.83;;
48993;SDS011;34804;49.214;12.276;2023-02-23T10:34:19;32.08;;;20.08;;
48993;SDS011;34804;49.214;12.276;2023-02-23T10:37:02;37.47;;;20.48;;
48993;SDS011;34804;49.214;12.276;2023-02-23T10:39:31;38.92;;;21.90;;
48993;SDS011;34804;49.214;12.276;2023-02-23T10:42:01;33.08;;;20.80;;
48993;SDS011;34804;49.214;12.276;2023-02-23T10:44:33;35.80;;;21.83;;
48993;SDS011;34804;49.214;12.276;2023-02-23T10:47:16;38.95;;;22.65;;
48993;SDS011;34804;49.214;12.276;2023-02-23T10:49:47;36.65;;;21.65;;
48993;SDS011;34804;49.214;12.276;2023-02-23T10:52:20;32.70;;;19.73;;
48993;SDS011;34804;49.214;12.276;2023-02-23T10:54:58;33.92;;;21.23;;
48993;SDS011;34804;49.214;12.276;2023-02-23T10:57:26;35.50;;;21.50;;
48993;SDS011;34804;49.214;12.276;2023-02-23T11:00:00;33.67;;;20.40;;
48993;SDS011;34804;49.214;12.276;2023-02-23T11:02:33;31.35;;;20.20;;
48993;SDS011;34804;49.214;12.276;2023-02-23T11:05:02;37.58;;;20.92;;
48993;SDS011;34804;49.214;12.276;2023-02-23T11:07:32;33.70;;;21.55;;
48993;SDS011;34804;49.214;12.276;2023-02-23T11:10:22;33.42;;;20.77;;
48993;SDS011;34804;49.214;12.276;2023-02-23T11:12:51;33.85;;;20.90;;
48993;SDS011;34804;49.214;12.276;2023-02-23T11:18:17;33.28;;;20.02;;
48993;SDS011;34804;49.214;12.276;2023-02-23T11:20:48;39.25;;;22.08;;
48993;SDS011;34804;49.214;12.276;2023-02-23T11:23:23;39.00;;;21.38;;
48993;SDS011;34804;49.214;12.276;2023-02-23T11:26:00;35.53;;;22.13;;
48993;SDS011;34804;49.214;12.276;2023-02-23T11:28:35;35.53;;;21.58;;
48993;SDS011;34804;49.214;12.276;2023-02-23T11:31:19;38.88;;;22.25;;
48993;SDS011;34804;49.214;12.276;2023-02-23T11:33:49;34.38;;;21.23;;
48993;SDS011;34804;49.214;12.276;2023-02-23T11:39:01;38.47;;;22.77;;
48993;SDS011;34804;49.214;12.276;2023-02-23T11:44:40;41.03;;;24.23;;
48993;SDS011;34804;49.214;12.276;2023-02-23T11:47:15;41.38;;;24.00;;
48993;SDS011;34804;49.214;12.276;2023-02-23T11:49:45;40.63;;;24.10;;
48993;SDS011;34804;49.214;12.276;2023-02-23T11:52:14;38.58;;;23.88;;
48993;SDS011;34804;49.214;12.276;2023-02-23T11:54:49;42.13;;;22.70;;
48993;SDS011;34804;49.214;12.276;2023-02-23T11:57:20;39.63;;;22.80;;
48993;SDS011;34804;49.214;12.276;2023-02-23T11:59:49;35.75;;;22.33;;
48993;SDS011;34804;49.214;12.276;2023-02-23T12:02:18;40.33;;;22.40;;
48993;SDS011;34804;49.214;12.276;2023-02-23T12:04:52;38.70;;;22.27;;
48993;SDS011;34804;49.214;12.276;2023-02-23T12:07:40;39.83;;;22.90;;
48993;SDS011;34804;49.214;12.276;2023-02-23T12:13:32;37.38;;;21.77;;
48993;SDS011;34804;49.214;12.276;2023-02-23T12:21:40;34.17;;;21.00;;
48993;SDS011;34804;49.214;12.276;2023-02-23T12:26:56;35.42;;;22.75;;
48993;SDS011;34804;49.214;12.276;2023-02-23T12:32:21;38.67;;;20.95;;
48993;SDS011;34804;49.214;12.276;2023-02-23T12:34:53;33.22;;;20.98;;
48993;SDS011;34804;49.214;12.276;2023-02-23T12:40:15;36.65;;;21.35;;
48993;SDS011;34804;49.214;12.276;2023-02-23T12:45:42;32.80;;;20.73;;
48993;SDS011;34804;49.214;12.276;2023-02-23T12:50:50;38.67;;;22.10;;
48993;SDS011;34804;49.214;12.276;2023-02-23T12:53:20;32.50;;;21.27;;
48993;SDS011;34804;49.214;12.276;2023-02-23T12:56:16;37.72;;;21.52;;
48993;SDS011;34804;49.214;12.276;2023-02-23T13:04:39;34.55;;;20.70;;
48993;SDS011;34804;49.214;12.276;2023-02-23T13:07:28;36.55;;;21.05;;
48993;SDS011;34804;49.214;12.276;2023-02-23T13:16:08;34.42;;;19.27;;
48993;SDS011;34804;49.214;12.276;2023-02-23T13:21:59;31.67;;;18.58;;
48993;SDS011;34804;49.214;12.276;2023-02-23T13:24:44;32.38;;;19.50;;
48993;SDS011;34804;49.214;12.276;2023-02-23T13:27:15;32.10;;;19.70;;
48993;SDS011;34804;49.214;12.276;2023-02-23T13:29:47;32.42;;;19.13;;
48993;SDS011;34804;49.214;12.276;2023-02-23T13:32:18;34.78;;;19.83;;
48993;SDS011;34804;49.214;12.276;2023-02-23T13:34:51;34.42;;;20.58;;
48993;SDS011;34804;49.214;12.276;2023-02-23T13:45:47;31.05;;;18.77;;
48993;SDS011;34804;49.214;12.276;2023-02-23T13:48:31;31.08;;;18.25;;
48993;SDS011;34804;49.214;12.276;2023-02-23T13:51:31;31.75;;;18.38;;
48993;SDS011;34804;49.214;12.276;2023-02-23T13:54:04;36.92;;;19.38;;
48993;SDS011;34804;49.214;12.276;2023-02-23T13:56:53;30.77;;;18.95;;
48993;SDS011;34804;49.214;12.276;2023-02-23T13:59:22;28.58;;;17.55;;
48993;SDS011;34804;49.214;12.276;2023-02-23T14:01:54;30.65;;;17.00;;
48993;SDS011;34804;49.214;12.276;2023-02-23T14:04:23;28.75;;;16.52;;
48993;SDS011;34804;49.214;12.276;2023-02-23T14:07:02;28.83;;;16.75;;
48993;SDS011;34804;49.214;12.276;2023-02-23T14:09:54;32.45;;;18.25;;
48993;SDS011;34804;49.214;12.276;2023-02-23T14:12:33;33.65;;;18.35;;
48993;SDS011;34804;49.214;12.276;2023-02-23T14:18:33;29.45;;;17.48;;
48993;SDS011;34804;49.214;12.276;2023-02-23T14:23:37;34.72;;;19.23;;
48993;SDS011;34804;49.214;12.276;2023-02-23T14:26:37;30.45;;;17.23;;
48993;SDS011;34804;49.214;12.276;2023-02-23T14:34:42;31.88;;;18.77;;
48993;SDS011;34804;49.214;12.276;2023-02-23T14:37:55;37.10;;;20.17;;
48993;SDS011;34804;49.214;12.276;2023-02-23T14:40:12;31.25;;;17.85;;
48993;SDS011;34804;49.214;12.276;2023-02-23T14:42:49;31.75;;;17.88;;
48993;SDS011;34804;49.214;12.276;2023-02-23T14:45:23;31.60;;;18.25;;
48993;SDS011;34804;49.214;12.276;2023-02-23T14:47:55;32.03;;;17.65;;
48993;SDS011;34804;49.214;12.276;2023-02-23T14:50:33;29.52;;;16.52;;
48993;SDS011;34804;49.214;12.276;2023-02-23T14:53:02;36.38;;;17.80;;
48993;SDS011;34804;49.214;12.276;2023-02-23T14:55:38;28.30;;;17.58;;
48993;SDS011;34804;49.214;12.276;2023-02-23T14:58:27;32.22;;;17.90;;
48993;SDS011;34804;49.214;12.276;2023-02-23T15:00:59;31.77;;;18.25;;
48993;SDS011;34804;49.214;12.276;2023-02-23T15:03:26;31.80;;;18.38;;
48993;SDS011;34804;49.214;12.276;2023-02-23T15:05:57;28.23;;;17.27;;
48993;SDS011;34804;49.214;12.276;2023-02-23T15:08:26;36.30;;;19.73;;
48993;SDS011;34804;49.214;12.276;2023-02-23T15:13:30;29.70;;;17.10;;
48993;SDS011;34804;49.214;12.276;2023-02-23T15:16:05;30.23;;;16.55;;
48993;SDS011;34804;49.214;12.276;2023-02-23T15:21:55;32.30;;;17.30;;
48993;SDS011;34804;49.214;12.276;2023-02-23T15:24:25;33.28;;;17.98;;
48993;SDS011;34804;49.214;12.276;2023-02-23T15:26:56;33.95;;;18.38;;
48993;SDS011;34804;49.214;12.276;2023-02-23T15:29:24;35.95;;;19.77;;
48993;SDS011;34804;49.214;12.276;2023-02-23T15:32:08;34.42;;;19.15;;
48993;SDS011;34804;49.214;12.276;2023-02-23T15:34:43;38.70;;;20.55;;
48993;SDS011;34804;49.214;12.276;2023-02-23T15:37:12;34.78;;;19.48;;
48993;SDS011;34804;49.214;12.276;2023-02-23T15:42:23;29.90;;;17.95;;
48993;SDS011;34804;49.214;12.276;2023-02-23T15:45:00;31.33;;;18.20;;
48993;SDS011;34804;49.214;12.276;2023-02-23T15:47:31;33.42;;;19.15;;
48993;SDS011;34804;49.214;12.276;2023-02-23T15:50:22;35.95;;;19.25;;
48993;SDS011;34804;49.214;12.276;2023-02-23T15:53:04;32.80;;;18.27;;
48993;SDS011;34804;49.214;12.276;2023-02-23T15:55:40;36.22;;;20.20;;
48993;SDS011;34804;49.214;12.276;2023-02-23T15:58:16;28.52;;;16.45;;
48993;SDS011;34804;49.214;12.276;2023-02-23T16:00:44;26.60;;;14.90;;
48993;SDS011;34804;49.214;12.276;2023-02-23T16:03:29;24.08;;;13.75;;
48993;SDS011;34804;49.214;12.276;2023-02-23T16:06:02;27.33;;;15.45;;
48993;SDS011;34804;49.214;12.276;2023-02-23T16:08:31;27.77;;;15.75;;
48993;SDS011;34804;49.214;12.276;2023-02-23T16:11:11;25.77;;;15.13;;
48993;SDS011;34804;49.214;12.276;2023-02-23T16:13:41;26.92;;;15.20;;
48993;SDS011;34804;49.214;12.276;2023-02-23T16:16:11;26.30;;;15.20;;
48993;SDS011;34804;49.214;12.276;2023-02-23T16:18:46;29.90;;;15.60;;
48993;SDS011;34804;49.214;12.276;2023-02-23T16:21:22;28.38;;;16.13;;
48993;SDS011;34804;49.214;12.276;2023-02-23T16:23:51;32.28;;;14.85;;
48993;SDS011;34804;49.214;12.276;2023-02-23T16:26:30;32.92;;;15.90;;
48993;SDS011;34804;49.214;12.276;2023-02-23T16:29:02;28.67;;;15.73;;
48993;SDS011;34804;49.214;12.276;2023-02-23T16:34:25;31.35;;;16.10;;
48993;SDS011;34804;49.214;12.276;2023-02-23T16:36:59;26.23;;;15.18;;
48993;SDS011;34804;49.214;12.276;2023-02-23T16:39:30;28.80;;;15.48;;
48993;SDS011;34804;49.214;12.276;2023-02-23T16:41:58;30.90;;;17.30;;
48993;SDS011;34804;49.214;12.276;2023-02-23T16:44:26;27.15;;;14.95;;
48993;SDS011;34804;49.214;12.276;2023-02-23T16:49:34;33.15;;;16.02;;
48993;SDS011;34804;49.214;12.276;2023-02-23T16:52:02;30.48;;;16.27;;
48993;SDS011;34804;49.214;12.276;2023-02-23T16:54:40;30.30;;;16.90;;
48993;SDS011;34804;49.214;12.276;2023-02-23T16:57:11;30.75;;;16.75;;
48993;SDS011;34804;49.214;12.276;2023-02-23T16:59:48;29.42;;;15.93;;
48993;SDS011;34804;49.214;12.276;2023-02-23T17:02:16;30.95;;;16.95;;
48993;SDS011;34804;49.214;12.276;2023-02-23T17:04:45;36.75;;;18.13;;